createdAt,value
2023-07-11T00:00:40.360Z,80.38
2023-07-11T00:03:07.148Z,80.61
2023-07-11T00:05:33.782Z,80.67
2023-07-11T00:08:00.350Z,80.45
2023-07-11T00:10:27.087Z,82.03
2023-07-11T00:12:53.969Z,83.05
2023-07-11T00:15:20.544Z,82.61
2023-07-11T00:17:48.893Z,81.89
2023-07-11T00:20:16.632Z,81.84
2023-07-11T00:22:44.946Z,81.86
2023-07-11T00:25:13.463Z,81.87
2023-07-11T00:27:41.042Z,82.01
2023-07-11T00:30:08.742Z,82.00
2023-07-11T00:32:35.965Z,81.87
2023-07-11T00:35:02.657Z,81.97
2023-07-11T00:37:29.191Z,81.92
2023-07-11T00:39:55.816Z,81.63
2023-07-11T00:42:22.462Z,81.90
2023-07-11T00:44:49.902Z,81.84
2023-07-11T00:47:16.619Z,81.84
2023-07-11T00:49:43.300Z,81.85
2023-07-11T00:52:10.562Z,81.93
2023-07-11T00:54:38.680Z,82.31
2023-07-11T00:57:10.505Z,83.17
2023-07-11T00:59:37.339Z,82.68
2023-07-11T01:02:09.694Z,82.44
2023-07-11T01:04:38.636Z,82.59
2023-07-11T01:07:08.755Z,82.79
2023-07-11T01:09:35.786Z,82.66
2023-07-11T01:12:06.355Z,82.71
2023-07-11T01:14:32.901Z,82.72
2023-07-11T01:16:59.715Z,83.10
2023-07-11T01:19:26.878Z,82.86
2023-07-11T01:21:53.924Z,83.09
2023-07-11T01:24:20.447Z,83.41
2023-07-11T01:26:46.957Z,83.51
2023-07-11T01:29:13.966Z,83.48
2023-07-11T01:31:40.542Z,83.73
2023-07-11T01:34:08.592Z,83.88
2023-07-11T01:36:35.789Z,84.18
2023-07-11T01:39:02.393Z,84.31
2023-07-11T01:41:29.028Z,84.59
2023-07-11T01:43:56.171Z,85.43
2023-07-11T01:46:22.877Z,85.31
2023-07-11T01:48:49.718Z,85.24
2023-07-11T01:51:17.117Z,85.60
2023-07-11T01:53:43.881Z,85.54
2023-07-11T01:56:10.550Z,85.63
2023-07-11T01:58:37.029Z,86.14
2023-07-11T02:01:03.612Z,85.88
2023-07-11T02:03:30.896Z,85.82
2023-07-11T02:05:58.234Z,85.98
2023-07-11T02:08:25.009Z,86.01
2023-07-11T02:10:51.654Z,86.28
2023-07-11T02:13:18.277Z,86.81
2023-07-11T02:15:44.800Z,88.90
2023-07-11T02:18:11.831Z,88.64
2023-07-11T02:20:43.620Z,88.88
2023-07-11T02:23:11.965Z,88.86
2023-07-11T02:25:40.701Z,88.68
2023-07-11T02:28:08.334Z,92.31
2023-07-11T02:30:35.541Z,95.02
2023-07-11T02:33:02.399Z,93.60
2023-07-11T02:35:29.188Z,93.07
2023-07-11T02:37:56.328Z,93.08
2023-07-11T02:40:23.027Z,92.95
2023-07-11T02:42:49.516Z,93.19
2023-07-11T02:45:16.533Z,93.05
2023-07-11T02:47:43.159Z,93.01
2023-07-11T02:50:10.077Z,92.87
2023-07-11T02:52:37.771Z,94.08
2023-07-11T02:55:05.445Z,94.20
2023-07-11T02:57:32.280Z,94.96
2023-07-11T02:59:58.958Z,94.81
2023-07-11T03:02:25.566Z,94.75
2023-07-11T03:04:52.365Z,94.53
2023-07-11T03:07:19.356Z,95.15
2023-07-11T03:09:45.846Z,95.01
2023-07-11T03:12:12.365Z,94.75
2023-07-11T03:14:38.932Z,94.62
2023-07-11T03:17:05.597Z,96.04
2023-07-11T03:19:32.609Z,96.32
2023-07-11T03:21:59.464Z,98.64
2023-07-11T03:24:25.966Z,99.99
2023-07-11T03:26:52.736Z,99.27
2023-07-11T03:29:19.412Z,97.86
2023-07-11T03:31:45.944Z,97.49
2023-07-11T03:34:12.574Z,96.35
2023-07-11T03:36:39.839Z,95.45
2023-07-11T03:39:06.552Z,94.61
2023-07-11T03:41:33.484Z,93.88
2023-07-11T03:44:00.992Z,93.07
2023-07-11T03:46:28.141Z,92.56
2023-07-11T03:48:55.108Z,91.71
2023-07-11T03:51:21.686Z,91.20
2023-07-11T03:53:48.293Z,90.27
2023-07-11T03:56:14.774Z,89.94
2023-07-11T03:58:41.420Z,89.71
2023-07-11T04:01:07.927Z,89.39
2023-07-11T04:03:35.026Z,88.98
2023-07-11T04:06:01.930Z,88.70
2023-07-11T04:08:28.466Z,88.02
2023-07-11T04:10:56.967Z,87.82
2023-07-11T04:13:23.822Z,87.53
2023-07-11T04:15:50.485Z,87.10
2023-07-11T04:18:17.109Z,86.85
2023-07-11T04:20:44.175Z,86.22
2023-07-11T04:23:11.231Z,85.25
2023-07-11T04:25:37.757Z,85.07
2023-07-11T04:28:06.198Z,83.72
2023-07-11T04:30:33.762Z,82.39
2023-07-11T04:33:00.999Z,81.55
2023-07-11T04:35:27.635Z,81.13
2023-07-11T04:37:54.186Z,79.71
2023-07-11T04:40:20.699Z,79.96
2023-07-11T04:42:47.564Z,78.89
2023-07-11T04:45:14.189Z,78.84
2023-07-11T04:47:40.696Z,78.65
2023-07-11T04:50:08.021Z,78.72
2023-07-11T04:52:34.565Z,78.51
2023-07-11T04:55:01.266Z,77.55
2023-07-11T04:57:27.853Z,76.61
2023-07-11T04:59:54.334Z,76.92
2023-07-11T05:02:20.860Z,76.72
2023-07-11T05:04:47.508Z,76.34
2023-07-11T05:07:14.968Z,75.83
2023-07-11T05:09:57.197Z,76.01
2023-07-11T05:12:25.857Z,75.99
2023-07-11T05:14:52.534Z,76.17
2023-07-11T05:17:19.283Z,76.20
2023-07-11T05:19:46.044Z,76.16
2023-07-11T05:22:12.878Z,76.14
2023-07-11T05:24:39.374Z,76.25
2023-07-11T05:27:06.071Z,76.35
2023-07-11T05:29:32.543Z,75.49
2023-07-11T05:31:59.136Z,75.09
2023-07-11T05:34:26.168Z,74.92
2023-07-11T05:36:52.816Z,74.71
2023-07-11T05:39:19.668Z,74.33
2023-07-11T05:41:51.636Z,73.69
2023-07-11T05:44:18.141Z,72.33
2023-07-11T05:46:47.834Z,72.55
2023-07-11T05:49:15.954Z,72.25
2023-07-11T05:51:42.615Z,71.23
2023-07-11T05:54:09.449Z,71.01
2023-07-11T05:56:35.965Z,69.27
2023-07-11T05:59:02.494Z,69.72
2023-07-11T06:01:31.043Z,68.76
2023-07-11T06:04:23.865Z,68.29
2023-07-11T06:06:50.449Z,67.93
2023-07-11T06:09:19.614Z,68.00
2023-07-11T06:11:48.857Z,67.65
2023-07-11T06:14:16.975Z,67.83
2023-07-11T06:16:47.183Z,67.29
2023-07-11T06:19:17.080Z,67.67
2023-07-11T06:21:43.623Z,67.19
2023-07-11T06:24:10.385Z,66.77
2023-07-11T06:26:37.133Z,66.34
2023-07-11T06:29:03.822Z,65.46
2023-07-11T06:31:30.365Z,66.18
2023-07-11T06:33:57.461Z,66.19
2023-07-11T06:36:24.307Z,65.15
2023-07-11T06:38:51.060Z,65.62
2023-07-11T06:41:17.617Z,64.71
2023-07-11T06:43:44.134Z,64.79
2023-07-11T06:46:10.800Z,64.68
2023-07-11T06:48:37.472Z,64.52
2023-07-11T06:51:05.376Z,64.27
2023-07-11T06:53:34.651Z,63.95
2023-07-11T06:56:02.626Z,63.55
2023-07-11T06:58:29.719Z,63.51
2023-07-11T07:00:59.671Z,63.83
2023-07-11T07:03:26.341Z,63.81
2023-07-11T07:05:56.271Z,63.58
2023-07-11T07:08:24.751Z,63.43
2023-07-11T07:10:52.067Z,62.81
2023-07-11T07:13:21.435Z,62.75
2023-07-11T07:15:50.224Z,62.16
2023-07-11T07:18:17.303Z,61.72
2023-07-11T07:20:56.221Z,60.79
2023-07-11T07:23:25.468Z,59.71
2023-07-11T07:25:54.693Z,59.44
2023-07-11T07:28:21.874Z,57.52
2023-07-11T07:30:50.137Z,58.14
2023-07-11T07:33:16.966Z,57.54
2023-07-11T07:35:44.123Z,56.07
2023-07-11T07:38:11.309Z,53.90
2023-07-11T07:40:38.780Z,53.40
2023-07-11T07:43:05.636Z,53.36
2023-07-11T07:45:32.312Z,52.53
2023-07-11T07:47:58.912Z,53.14
2023-07-11T07:50:25.633Z,53.05
2023-07-11T07:52:52.182Z,53.35
2023-07-11T07:55:18.823Z,53.11
2023-07-11T07:57:46.729Z,53.05
2023-07-11T08:00:13.943Z,52.28
2023-07-11T08:02:40.503Z,52.42
2023-07-11T08:05:07.706Z,51.35
2023-07-11T08:07:34.931Z,50.51
2023-07-11T08:10:01.544Z,49.86
2023-07-11T08:12:28.059Z,49.56
2023-07-11T08:14:54.557Z,48.32
2023-07-11T08:17:21.212Z,49.42
2023-07-11T08:19:48.518Z,49.77
2023-07-11T08:22:15.351Z,50.07
2023-07-11T08:24:41.923Z,49.08
2023-07-11T08:27:08.413Z,48.00
2023-07-11T08:29:35.135Z,48.22
2023-07-11T08:32:01.602Z,47.30
2023-07-11T08:34:28.259Z,46.96
2023-07-11T08:36:55.305Z,46.38
2023-07-11T08:39:22.397Z,45.61
2023-07-11T08:41:52.714Z,45.24
2023-07-11T08:44:28.300Z,45.70
2023-07-11T08:47:22.785Z,45.60
2023-07-11T08:49:54.006Z,46.15
2023-07-11T08:52:22.752Z,44.87
2023-07-11T08:55:05.956Z,44.18
2023-07-11T08:57:36.938Z,44.46
2023-07-11T09:00:13.066Z,43.93
2023-07-11T09:02:51.326Z,44.12
2023-07-11T09:05:53.309Z,44.87
2023-07-11T09:08:21.706Z,44.61
2023-07-11T09:11:03.484Z,44.15
2023-07-11T09:14:01.246Z,44.71
2023-07-11T09:16:27.812Z,44.07
2023-07-11T09:19:06.845Z,42.97
2023-07-11T09:21:50.350Z,43.23
2023-07-11T09:25:00.458Z,43.45
2023-07-11T09:27:35.731Z,43.31
2023-07-11T09:30:34.387Z,43.32
2023-07-11T09:33:19.140Z,43.23
2023-07-11T09:35:46.850Z,42.90
2023-07-11T09:38:19.284Z,43.44
2023-07-11T09:40:52.617Z,41.88
2023-07-11T09:43:19.218Z,41.57
2023-07-11T09:45:45.994Z,40.41
2023-07-11T09:48:34.313Z,41.08
2023-07-11T09:53:30.820Z,42.69
2023-07-11T09:56:12.345Z,42.93
2023-07-11T09:58:41.290Z,43.64
2023-07-11T10:01:17.597Z,42.03
2023-07-11T10:03:46.916Z,42.72
2023-07-11T10:06:32.742Z,42.61
2023-07-11T10:09:23.665Z,43.13
2023-07-11T10:11:54.614Z,43.11
2023-07-11T10:14:29.124Z,43.08
2023-07-11T10:16:57.405Z,43.26
2023-07-11T10:19:24.917Z,44.38
2023-07-11T10:21:53.093Z,44.49
2023-07-11T10:24:25.425Z,43.60
2023-07-11T10:27:05.192Z,42.19
2023-07-11T10:29:40.477Z,42.10
2023-07-11T10:32:14.580Z,42.46
2023-07-11T10:34:45.452Z,42.69
2023-07-11T10:37:46.621Z,42.11
2023-07-11T10:40:25.535Z,41.47
2023-07-11T10:43:25.609Z,40.84
2023-07-11T10:46:10.985Z,42.01
2023-07-11T10:48:46.759Z,41.90
2023-07-11T10:51:21.301Z,40.80
2023-07-11T10:54:12.575Z,40.41
2023-07-11T10:56:45.799Z,41.55
2023-07-11T10:59:14.427Z,41.84
2023-07-11T11:01:59.595Z,41.31
2023-07-11T11:04:51.035Z,41.44
2023-07-11T11:07:17.678Z,41.49
2023-07-11T11:10:05.148Z,41.03
2023-07-11T11:12:39.642Z,39.93
2023-07-11T11:15:21.582Z,39.49
2023-07-11T11:18:24.622Z,39.47
2023-07-11T11:21:21.136Z,39.41
2023-07-11T11:24:18.150Z,39.91
2023-07-11T11:27:24.373Z,39.64
2023-07-11T11:30:15.080Z,38.70
2023-07-11T11:32:54.257Z,38.35
2023-07-11T11:35:47.864Z,38.54
2023-07-11T11:38:26.304Z,37.61
2023-07-11T11:51:33.899Z,37.26
2023-07-11T11:54:26.928Z,37.30
2023-07-11T11:57:00.249Z,37.64
2023-07-11T11:59:28.930Z,37.38
2023-07-11T12:01:55.444Z,37.11
2023-07-11T12:04:36.776Z,37.34
2023-07-11T12:07:03.547Z,38.01
2023-07-11T12:09:45.840Z,38.02
2023-07-11T12:12:19.469Z,36.50
2023-07-11T12:14:59.733Z,36.69
2023-07-11T12:17:32.546Z,37.02
2023-07-11T12:20:02.693Z,37.46
2023-07-11T12:22:38.396Z,37.68
2023-07-11T12:27:17.686Z,37.14
2023-07-11T12:29:54.664Z,37.25
2023-07-11T12:32:33.723Z,37.29
2023-07-11T12:35:06.584Z,37.83
